sensor_id;sensor_type;location;lat;lon;timestamp;temperature;humidity
8475;DHT22;4274;52.012;8.448;2023-02-26T00:00:07;-1.10;99.90
8475;DHT22;4274;52.012;8.448;2023-02-26T00:02:36;-1.10;99.90
8475;DHT22;4274;52.012;8.448;2023-02-26T00:05:04;-1.10;99.90
8475;DHT22;4274;52.012;8.448;2023-02-26T00:07:30;-1.10;99.90
8475;DHT22;4274;52.012;8.448;2023-02-26T00:09:56;-1.20;99.90
8475;DHT22;4274;52.012;8.448;2023-02-26T00:12:21;-1.20;99.90
8475;DHT22;4274;52.012;8.448;2023-02-26T00:14:47;-1.20;99.90
8475;DHT22;4274;52.012;8.448;2023-02-26T00:19:54;-1.40;99.90
8475;DHT22;4274;52.012;8.448;2023-02-26T00:22:20;-1.40;99.90
8475;DHT22;4274;52.012;8.448;2023-02-26T00:24:46;-1.40;99.90
8475;DHT22;4274;52.012;8.448;2023-02-26T00:27:11;-1.40;99.90
8475;DHT22;4274;52.012;8.448;2023-02-26T00:29:38;-1.40;99.90
8475;DHT22;4274;52.012;8.448;2023-02-26T00:32:04;-1.40;99.90
8475;DHT22;4274;52.012;8.448;2023-02-26T00:34:30;-1.40;99.90
8475;DHT22;4274;52.012;8.448;2023-02-26T00:40:02;-1.40;99.90
8475;DHT22;4274;52.012;8.448;2023-02-26T00:42:31;-1.50;99.90
8475;DHT22;4274;52.012;8.448;2023-02-26T00:44:57;-1.50;99.90
8475;DHT22;4274;52.012;8.448;2023-02-26T00:47:30;-1.40;99.90
8475;DHT22;4274;52.012;8.448;2023-02-26T00:55:51;-1.30;99.90
8475;DHT22;4274;52.012;8.448;2023-02-26T00:58:17;-1.30;99.90
8475;DHT22;4274;52.012;8.448;2023-02-26T01:00:42;-1.30;99.90
8475;DHT22;4274;52.012;8.448;2023-02-26T01:03:08;-1.20;99.90
8475;DHT22;4274;52.012;8.448;2023-02-26T01:05:35;-1.20;99.90
8475;DHT22;4274;52.012;8.448;2023-02-26T01:08:15;-1.20;99.90
8475;DHT22;4274;52.012;8.448;2023-02-26T01:10:44;-1.10;99.90
8475;DHT22;4274;52.012;8.448;2023-02-26T01:13:09;-1.10;99.90
8475;DHT22;4274;52.012;8.448;2023-02-26T01:15:36;-1.10;99.90
8475;DHT22;4274;52.012;8.448;2023-02-26T01:18:15;-1.20;99.90
8475;DHT22;4274;52.012;8.448;2023-02-26T01:20:46;-1.20;99.90
8475;DHT22;4274;52.012;8.448;2023-02-26T01:23:15;-1.30;99.90
8475;DHT22;4274;52.012;8.448;2023-02-26T01:25:47;-1.30;99.90
8475;DHT22;4274;52.012;8.448;2023-02-26T01:28:14;-1.30;99.90
8475;DHT22;4274;52.012;8.448;2023-02-26T01:30:40;-1.20;99.90
8475;DHT22;4274;52.012;8.448;2023-02-26T01:33:18;-1.20;99.90
8475;DHT22;4274;52.012;8.448;2023-02-26T01:35:54;-1.20;99.90
8475;DHT22;4274;52.012;8.448;2023-02-26T01:38:23;-1.10;99.90
8475;DHT22;4274;52.012;8.448;2023-02-26T01:41:25;-1.00;99.90
8475;DHT22;4274;52.012;8.448;2023-02-26T01:44:22;-0.90;99.90
8475;DHT22;4274;52.012;8.448;2023-02-26T01:49:39;-0.90;99.90
8475;DHT22;4274;52.012;8.448;2023-02-26T01:52:06;-0.90;99.90
8475;DHT22;4274;52.012;8.448;2023-02-26T01:54:51;-0.90;99.90
8475;DHT22;4274;52.012;8.448;2023-02-26T01:57:18;-0.90;99.90
8475;DHT22;4274;52.012;8.448;2023-02-26T01:59:48;-0.90;99.90
8475;DHT22;4274;52.012;8.448;2023-02-26T02:02:17;-1.00;99.90
8475;DHT22;4274;52.012;8.448;2023-02-26T02:04:43;-1.10;99.90
8475;DHT22;4274;52.012;8.448;2023-02-26T02:07:10;-1.10;99.90
8475;DHT22;4274;52.012;8.448;2023-02-26T02:09:35;-1.20;99.90
8475;DHT22;4274;52.012;8.448;2023-02-26T02:12:30;-1.20;99.90
8475;DHT22;4274;52.012;8.448;2023-02-26T02:15:10;-1.20;99.90
8475;DHT22;4274;52.012;8.448;2023-02-26T02:17:54;-1.20;99.90
8475;DHT22;4274;52.012;8.448;2023-02-26T02:20:51;-1.20;99.90
8475;DHT22;4274;52.012;8.448;2023-02-26T02:23:46;-1.30;99.90
8475;DHT22;4274;52.012;8.448;2023-02-26T02:32:08;-1.40;99.90
8475;DHT22;4274;52.012;8.448;2023-02-26T02:37:31;-1.60;99.90
8475;DHT22;4274;52.012;8.448;2023-02-26T02:43:08;-1.70;99.90
8475;DHT22;4274;52.012;8.448;2023-02-26T02:48:27;-1.70;99.90
8475;DHT22;4274;52.012;8.448;2023-02-26T02:51:07;-1.70;99.90
8475;DHT22;4274;52.012;8.448;2023-02-26T02:53:59;-1.70;99.90
8475;DHT22;4274;52.012;8.448;2023-02-26T02:56:54;-1.70;99.90
8475;DHT22;4274;52.012;8.448;2023-02-26T02:59:43;-1.70;99.90
8475;DHT22;4274;52.012;8.448;2023-02-26T03:04:38;-1.70;99.90
8475;DHT22;4274;52.012;8.448;2023-02-26T03:07:04;-1.80;99.90
8475;DHT22;4274;52.012;8.448;2023-02-26T03:09:29;-1.80;99.90
8475;DHT22;4274;52.012;8.448;2023-02-26T03:11:55;-1.80;99.90
8475;DHT22;4274;52.012;8.448;2023-02-26T03:14:21;-1.80;99.90
8475;DHT22;4274;52.012;8.448;2023-02-26T03:16:59;-1.80;99.90
8475;DHT22;4274;52.012;8.448;2023-02-26T03:25:03;-1.80;99.90
8475;DHT22;4274;52.012;8.448;2023-02-26T03:27:46;-1.80;99.90
8475;DHT22;4274;52.012;8.448;2023-02-26T03:30:18;-1.80;99.90
8475;DHT22;4274;52.012;8.448;2023-02-26T03:32:54;-1.80;99.90
8475;DHT22;4274;52.012;8.448;2023-02-26T03:35:32;-1.80;99.90
8475;DHT22;4274;52.012;8.448;2023-02-26T03:38:03;-1.80;99.90
8475;DHT22;4274;52.012;8.448;2023-02-26T03:40:38;-1.80;99.90
8475;DHT22;4274;52.012;8.448;2023-02-26T03:43:11;-1.90;99.90
8475;DHT22;4274;52.012;8.448;2023-02-26T03:45:40;-1.90;99.90
8475;DHT22;4274;52.012;8.448;2023-02-26T03:48:10;-1.90;99.90
8475;DHT22;4274;52.012;8.448;2023-02-26T03:50:44;-1.90;99.90
8475;DHT22;4274;52.012;8.448;2023-02-26T03:53:12;-2.00;99.90
8475;DHT22;4274;52.012;8.448;2023-02-26T03:55:59;-2.00;99.90
8475;DHT22;4274;52.012;8.448;2023-02-26T03:58:26;-2.10;99.90
8475;DHT22;4274;52.012;8.448;2023-02-26T04:01:05;-2.10;99.90
8475;DHT22;4274;52.012;8.448;2023-02-26T04:03:41;-2.20;99.90
8475;DHT22;4274;52.012;8.448;2023-02-26T04:06:09;-2.20;99.90
8475;DHT22;4274;52.012;8.448;2023-02-26T04:08:35;-2.30;99.90
8475;DHT22;4274;52.012;8.448;2023-02-26T04:11:13;-2.30;99.90
8475;DHT22;4274;52.012;8.448;2023-02-26T04:13:41;-2.30;99.90
8475;DHT22;4274;52.012;8.448;2023-02-26T04:16:07;-2.20;99.90
8475;DHT22;4274;52.012;8.448;2023-02-26T04:18:32;-2.20;99.90
8475;DHT22;4274;52.012;8.448;2023-02-26T04:20:58;-2.20;99.90
8475;DHT22;4274;52.012;8.448;2023-02-26T04:23:23;-2.20;99.90
8475;DHT22;4274;52.012;8.448;2023-02-26T04:25:49;-2.30;99.90
8475;DHT22;4274;52.012;8.448;2023-02-26T04:28:15;-2.30;99.90
8475;DHT22;4274;52.012;8.448;2023-02-26T04:30:40;-2.30;99.90
8475;DHT22;4274;52.012;8.448;2023-02-26T04:33:06;-2.30;99.90
8475;DHT22;4274;52.012;8.448;2023-02-26T04:35:31;-2.20;99.90
8475;DHT22;4274;52.012;8.448;2023-02-26T04:37:58;-2.20;99.90
8475;DHT22;4274;52.012;8.448;2023-02-26T04:40:23;-2.30;99.90
8475;DHT22;4274;52.012;8.448;2023-02-26T04:42:49;-2.30;99.90
8475;DHT22;4274;52.012;8.448;2023-02-26T04:45:15;-2.30;99.90
8475;DHT22;4274;52.012;8.448;2023-02-26T04:47:40;-2.30;99.90
8475;DHT22;4274;52.012;8.448;2023-02-26T04:50:06;-2.30;99.90
8475;DHT22;4274;52.012;8.448;2023-02-26T04:52:32;-2.40;99.90
8475;DHT22;4274;52.012;8.448;2023-02-26T04:54:58;-2.40;99.90
8475;DHT22;4274;52.012;8.448;2023-02-26T04:57:24;-2.40;99.90
8475;DHT22;4274;52.012;8.448;2023-02-26T04:59:49;-2.40;99.90
8475;DHT22;4274;52.012;8.448;2023-02-26T05:02:15;-2.30;99.90
8475;DHT22;4274;52.012;8.448;2023-02-26T05:04:40;-2.20;99.90
8475;DHT22;4274;52.012;8.448;2023-02-26T05:07:06;-2.20;99.90
8475;DHT22;4274;52.012;8.448;2023-02-26T05:09:32;-2.10;99.90
8475;DHT22;4274;52.012;8.448;2023-02-26T05:11:57;-2.10;99.90
8475;DHT22;4274;52.012;8.448;2023-02-26T05:14:23;-2.10;99.90
8475;DHT22;4274;52.012;8.448;2023-02-26T05:16:48;-2.10;99.90
8475;DHT22;4274;52.012;8.448;2023-02-26T05:19:14;-2.00;99.90
8475;DHT22;4274;52.012;8.448;2023-02-26T05:21:40;-2.00;99.90
8475;DHT22;4274;52.012;8.448;2023-02-26T05:24:05;-2.00;99.90
8475;DHT22;4274;52.012;8.448;2023-02-26T05:26:31;-2.00;99.90
8475;DHT22;4274;52.012;8.448;2023-02-26T05:28:57;-2.00;99.90
8475;DHT22;4274;52.012;8.448;2023-02-26T05:31:23;-2.00;99.90
8475;DHT22;4274;52.012;8.448;2023-02-26T05:33:48;-1.90;99.90
8475;DHT22;4274;52.012;8.448;2023-02-26T05:36:14;-1.90;99.90
8475;DHT22;4274;52.012;8.448;2023-02-26T05:38:39;-1.90;99.90
8475;DHT22;4274;52.012;8.448;2023-02-26T05:41:05;-1.80;99.90
8475;DHT22;4274;52.012;8.448;2023-02-26T05:43:31;-1.80;99.90
8475;DHT22;4274;52.012;8.448;2023-02-26T05:45:57;-1.80;99.90
8475;DHT22;4274;52.012;8.448;2023-02-26T05:48:23;-1.80;99.90
8475;DHT22;4274;52.012;8.448;2023-02-26T05:50:49;-1.80;99.90
8475;DHT22;4274;52.012;8.448;2023-02-26T05:53:15;-1.80;99.90
8475;DHT22;4274;52.012;8.448;2023-02-26T05:55:41;-1.80;99.90
8475;DHT22;4274;52.012;8.448;2023-02-26T05:58:06;-1.90;99.90
8475;DHT22;4274;52.012;8.448;2023-02-26T06:00:32;-1.90;99.90
8475;DHT22;4274;52.012;8.448;2023-02-26T06:02:58;-2.00;99.90
8475;DHT22;4274;52.012;8.448;2023-02-26T06:05:24;-2.10;99.90
8475;DHT22;4274;52.012;8.448;2023-02-26T06:07:49;-2.10;99.90
8475;DHT22;4274;52.012;8.448;2023-02-26T06:10:15;-2.20;99.90
8475;DHT22;4274;52.012;8.448;2023-02-26T06:12:40;-2.20;99.90
8475;DHT22;4274;52.012;8.448;2023-02-26T06:15:07;-2.20;99.90
8475;DHT22;4274;52.012;8.448;2023-02-26T06:17:33;-2.30;99.90
8475;DHT22;4274;52.012;8.448;2023-02-26T06:19:59;-2.30;99.90
8475;DHT22;4274;52.012;8.448;2023-02-26T06:22:25;-2.30;99.90
8475;DHT22;4274;52.012;8.448;2023-02-26T06:24:50;-2.30;99.90
8475;DHT22;4274;52.012;8.448;2023-02-26T06:27:16;-2.30;99.90
8475;DHT22;4274;52.012;8.448;2023-02-26T06:29:41;-2.40;99.90
8475;DHT22;4274;52.012;8.448;2023-02-26T06:32:07;-2.30;99.90
8475;DHT22;4274;52.012;8.448;2023-02-26T06:34:33;-2.40;99.90
8475;DHT22;4274;52.012;8.448;2023-02-26T06:36:58;-2.40;99.90
8475;DHT22;4274;52.012;8.448;2023-02-26T06:39:24;-2.40;99.90
8475;DHT22;4274;52.012;8.448;2023-02-26T06:41:50;-2.40;99.90
8475;DHT22;4274;52.012;8.448;2023-02-26T06:44:15;-2.40;99.90
8475;DHT22;4274;52.012;8.448;2023-02-26T06:46:41;-2.30;99.90
8475;DHT22;4274;52.012;8.448;2023-02-26T06:49:06;-2.30;99.90
8475;DHT22;4274;52.012;8.448;2023-02-26T06:51:32;-2.30;99.90
8475;DHT22;4274;52.012;8.448;2023-02-26T06:53:58;-2.30;99.90
8475;DHT22;4274;52.012;8.448;2023-02-26T06:56:24;-2.30;99.90
8475;DHT22;4274;52.012;8.448;2023-02-26T06:58:50;-2.30;99.90
8475;DHT22;4274;52.012;8.448;2023-02-26T07:01:15;-2.20;99.90
8475;DHT22;4274;52.012;8.448;2023-02-26T07:03:41;-2.20;99.90
8475;DHT22;4274;52.012;8.448;2023-02-26T07:06:08;-2.20;99.90
8475;DHT22;4274;52.012;8.448;2023-02-26T07:08:35;-2.10;99.90
8475;DHT22;4274;52.012;8.448;2023-02-26T07:11:01;-2.00;99.90
8475;DHT22;4274;52.012;8.448;2023-02-26T07:13:27;-1.90;99.90
8475;DHT22;4274;52.012;8.448;2023-02-26T07:15:53;-1.90;99.90
8475;DHT22;4274;52.012;8.448;2023-02-26T07:18:18;-1.80;99.90
8475;DHT22;4274;52.012;8.448;2023-02-26T07:20:44;-1.80;99.90
8475;DHT22;4274;52.012;8.448;2023-02-26T07:23:10;-1.70;99.90
8475;DHT22;4274;52.012;8.448;2023-02-26T07:25:36;-1.60;99.90
8475;DHT22;4274;52.012;8.448;2023-02-26T07:28:02;-1.60;99.90
8475;DHT22;4274;52.012;8.448;2023-02-26T07:30:28;-1.50;99.90
8475;DHT22;4274;52.012;8.448;2023-02-26T07:32:53;-1.40;99.90
8475;DHT22;4274;52.012;8.448;2023-02-26T07:35:19;-1.40;99.90
8475;DHT22;4274;52.012;8.448;2023-02-26T07:37:45;-1.30;99.90
8475;DHT22;4274;52.012;8.448;2023-02-26T07:40:11;-1.30;99.90
8475;DHT22;4274;52.012;8.448;2023-02-26T07:42:36;-1.20;99.90
8475;DHT22;4274;52.012;8.448;2023-02-26T07:45:03;-1.10;99.90
8475;DHT22;4274;52.012;8.448;2023-02-26T07:47:28;-1.00;99.90
8475;DHT22;4274;52.012;8.448;2023-02-26T07:49:55;-0.90;99.90
8475;DHT22;4274;52.012;8.448;2023-02-26T07:52:21;-0.90;99.90
8475;DHT22;4274;52.012;8.448;2023-02-26T07:54:47;-0.80;99.90
8475;DHT22;4274;52.012;8.448;2023-02-26T07:57:12;-0.70;99.90
8475;DHT22;4274;52.012;8.448;2023-02-26T07:59:38;-0.50;99.90
8475;DHT22;4274;52.012;8.448;2023-02-26T08:02:04;-0.40;99.90
8475;DHT22;4274;52.012;8.448;2023-02-26T08:04:30;-0.20;99.90
8475;DHT22;4274;52.012;8.448;2023-02-26T08:06:58;0.10;99.90
8475;DHT22;4274;52.012;8.448;2023-02-26T08:09:24;0.40;99.90
8475;DHT22;4274;52.012;8.448;2023-02-26T08:11:50;0.90;99.90
8475;DHT22;4274;52.012;8.448;2023-02-26T08:14:16;1.80;99.90
8475;DHT22;4274;52.012;8.448;2023-02-26T08:16:41;2.70;99.90
8475;DHT22;4274;52.012;8.448;2023-02-26T08:19:07;3.50;99.90
8475;DHT22;4274;52.012;8.448;2023-02-26T08:21:33;4.00;99.90
8475;DHT22;4274;52.012;8.448;2023-02-26T08:23:58;4.50;99.90
8475;DHT22;4274;52.012;8.448;2023-02-26T08:26:24;4.90;99.90
8475;DHT22;4274;52.012;8.448;2023-02-26T08:28:50;5.20;99.90
8475;DHT22;4274;52.012;8.448;2023-02-26T08:31:16;5.30;99.90
8475;DHT22;4274;52.012;8.448;2023-02-26T08:33:42;5.20;99.90
8475;DHT22;4274;52.012;8.448;2023-02-26T08:36:08;5.40;99.90
8475;DHT22;4274;52.012;8.448;2023-02-26T08:38:34;5.80;99.90
8475;DHT22;4274;52.012;8.448;2023-02-26T08:41:00;6.30;99.90
8475;DHT22;4274;52.012;8.448;2023-02-26T08:43:25;6.70;99.90
8475;DHT22;4274;52.012;8.448;2023-02-26T08:45:53;7.10;99.90
8475;DHT22;4274;52.012;8.448;2023-02-26T08:48:19;7.10;99.90
8475;DHT22;4274;52.012;8.448;2023-02-26T08:50:45;7.10;99.90
8475;DHT22;4274;52.012;8.448;2023-02-26T08:53:10;7.30;99.90
8475;DHT22;4274;52.012;8.448;2023-02-26T08:55:36;7.10;99.90
8475;DHT22;4274;52.012;8.448;2023-02-26T08:58:02;6.90;99.90
8475;DHT22;4274;52.012;8.448;2023-02-26T09:00:28;7.00;99.90
8475;DHT22;4274;52.012;8.448;2023-02-26T09:02:54;7.10;99.90
8475;DHT22;4274;52.012;8.448;2023-02-26T09:05:20;6.90;99.90
8475;DHT22;4274;52.012;8.448;2023-02-26T09:07:46;6.80;99.90
8475;DHT22;4274;52.012;8.448;2023-02-26T09:10:12;6.80;99.90
8475;DHT22;4274;52.012;8.448;2023-02-26T09:12:38;6.80;99.90
8475;DHT22;4274;52.012;8.448;2023-02-26T09:15:05;6.90;99.90
8475;DHT22;4274;52.012;8.448;2023-02-26T09:17:31;7.10;99.90
8475;DHT22;4274;52.012;8.448;2023-02-26T09:19:57;7.20;99.90
8475;DHT22;4274;52.012;8.448;2023-02-26T09:22:23;6.90;99.90
8475;DHT22;4274;52.012;8.448;2023-02-26T09:24:49;7.00;99.90
8475;DHT22;4274;52.012;8.448;2023-02-26T09:27:15;7.50;99.90
8475;DHT22;4274;52.012;8.448;2023-02-26T09:29:41;8.10;99.90
8475;DHT22;4274;52.012;8.448;2023-02-26T09:32:06;8.50;99.90
8475;DHT22;4274;52.012;8.448;2023-02-26T09:34:37;8.70;98.00
8475;DHT22;4274;52.012;8.448;2023-02-26T09:37:05;8.60;97.80
8475;DHT22;4274;52.012;8.448;2023-02-26T09:39:31;8.60;95.60
8475;DHT22;4274;52.012;8.448;2023-02-26T09:42:03;8.30;95.80
8475;DHT22;4274;52.012;8.448;2023-02-26T09:44:35;8.10;95.80
8475;DHT22;4274;52.012;8.448;2023-02-26T09:47:25;8.30;97.80
8475;DHT22;4274;52.012;8.448;2023-02-26T09:50:15;9.10;98.60
8475;DHT22;4274;52.012;8.448;2023-02-26T09:55:23;9.70;95.30
8475;DHT22;4274;52.012;8.448;2023-02-26T09:57:54;9.10;93.10
8475;DHT22;4274;52.012;8.448;2023-02-26T10:00:23;8.30;93.80
8475;DHT22;4274;52.012;8.448;2023-02-26T10:03:09;7.60;93.40
8475;DHT22;4274;52.012;8.448;2023-02-26T10:06:14;7.50;94.20
8475;DHT22;4274;52.012;8.448;2023-02-26T10:11:30;7.90;92.80
8475;DHT22;4274;52.012;8.448;2023-02-26T10:17:00;8.10;93.30
8475;DHT22;4274;52.012;8.448;2023-02-26T10:19:32;8.50;92.50
8475;DHT22;4274;52.012;8.448;2023-02-26T10:22:15;8.20;92.50
8475;DHT22;4274;52.012;8.448;2023-02-26T10:24:48;7.90;92.00
8475;DHT22;4274;52.012;8.448;2023-02-26T10:27:19;7.80;92.20
8475;DHT22;4274;52.012;8.448;2023-02-26T10:29:59;6.80;92.50
8475;DHT22;4274;52.012;8.448;2023-02-26T10:35:16;7.00;93.20
8475;DHT22;4274;52.012;8.448;2023-02-26T10:37:55;7.50;92.00
8475;DHT22;4274;52.012;8.448;2023-02-26T10:51:17;9.90;90.40
8475;DHT22;4274;52.012;8.448;2023-02-26T10:53:48;10.30;86.00
8475;DHT22;4274;52.012;8.448;2023-02-26T10:56:28;10.40;86.10
8475;DHT22;4274;52.012;8.448;2023-02-26T10:58:55;10.50;84.90
8475;DHT22;4274;52.012;8.448;2023-02-26T11:01:23;11.20;84.10
8475;DHT22;4274;52.012;8.448;2023-02-26T11:04:00;11.80;81.20
8475;DHT22;4274;52.012;8.448;2023-02-26T11:06:30;12.60;82.10
8475;DHT22;4274;52.012;8.448;2023-02-26T11:08:59;13.10;80.20
8475;DHT22;4274;52.012;8.448;2023-02-26T11:11:46;12.90;77.00
8475;DHT22;4274;52.012;8.448;2023-02-26T11:14:13;13.30;78.70
8475;DHT22;4274;52.012;8.448;2023-02-26T11:16:46;13.60;76.20
8475;DHT22;4274;52.012;8.448;2023-02-26T11:19:14;13.80;76.80
8475;DHT22;4274;52.012;8.448;2023-02-26T11:21:43;14.30;75.70
8475;DHT22;4274;52.012;8.448;2023-02-26T11:24:18;14.50;72.60
8475;DHT22;4274;52.012;8.448;2023-02-26T11:26:47;14.80;71.00
8475;DHT22;4274;52.012;8.448;2023-02-26T11:29:16;13.90;72.20
8475;DHT22;4274;52.012;8.448;2023-02-26T11:31:42;12.70;72.30
8475;DHT22;4274;52.012;8.448;2023-02-26T11:34:11;10.80;73.70
8475;DHT22;4274;52.012;8.448;2023-02-26T11:36:40;9.40;77.60
8475;DHT22;4274;52.012;8.448;2023-02-26T11:39:22;8.70;79.30
8475;DHT22;4274;52.012;8.448;2023-02-26T11:41:49;8.00;80.10
8475;DHT22;4274;52.012;8.448;2023-02-26T11:44:18;7.90;81.80
8475;DHT22;4274;52.012;8.448;2023-02-26T11:46:51;7.60;81.10
8475;DHT22;4274;52.012;8.448;2023-02-26T11:49:21;7.20;81.70
8475;DHT22;4274;52.012;8.448;2023-02-26T11:54:34;8.10;81.50
8475;DHT22;4274;52.012;8.448;2023-02-26T11:57:06;9.10;81.10
8475;DHT22;4274;52.012;8.448;2023-02-26T11:59:39;10.10;77.40
8475;DHT22;4274;52.012;8.448;2023-02-26T12:02:11;10.40;75.70
8475;DHT22;4274;52.012;8.448;2023-02-26T12:04:41;10.90;77.10
8475;DHT22;4274;52.012;8.448;2023-02-26T12:07:11;11.10;75.10
8475;DHT22;4274;52.012;8.448;2023-02-26T12:09:37;11.20;78.60
8475;DHT22;4274;52.012;8.448;2023-02-26T12:12:33;11.30;76.10
8475;DHT22;4274;52.012;8.448;2023-02-26T12:26:23;9.30;81.20
8475;DHT22;4274;52.012;8.448;2023-02-26T13:21:24;9.30;80.00
8475;DHT22;4274;52.012;8.448;2023-02-26T13:23:55;9.00;80.40
8475;DHT22;4274;52.012;8.448;2023-02-26T13:26:22;8.80;79.80
8475;DHT22;4274;52.012;8.448;2023-02-26T13:29:07;9.00;80.40
8475;DHT22;4274;52.012;8.448;2023-02-26T13:31:46;9.30;77.90
8475;DHT22;4274;52.012;8.448;2023-02-26T13:34:18;9.60;79.90
8475;DHT22;4274;52.012;8.448;2023-02-26T13:36:47;9.90;79.50
8475;DHT22;4274;52.012;8.448;2023-02-26T13:39:21;10.30;80.40
8475;DHT22;4274;52.012;8.448;2023-02-26T13:42:14;10.90;79.40
8475;DHT22;4274;52.012;8.448;2023-02-26T13:50:15;10.80;74.30
8475;DHT22;4274;52.012;8.448;2023-02-26T13:52:55;10.70;74.70
8475;DHT22;4274;52.012;8.448;2023-02-26T13:55:41;10.60;74.80
8475;DHT22;4274;52.012;8.448;2023-02-26T14:01:15;10.20;76.70
8475;DHT22;4274;52.012;8.448;2023-02-26T14:03:49;10.30;75.40
8475;DHT22;4274;52.012;8.448;2023-02-26T14:08:56;9.10;77.40
8475;DHT22;4274;52.012;8.448;2023-02-26T14:11:37;8.70;79.00
8475;DHT22;4274;52.012;8.448;2023-02-26T14:16:35;9.20;76.30
8475;DHT22;4274;52.012;8.448;2023-02-26T14:19:23;9.20;76.20
8475;DHT22;4274;52.012;8.448;2023-02-26T14:21:54;9.30;75.60
8475;DHT22;4274;52.012;8.448;2023-02-26T14:24:38;9.30;74.60
8475;DHT22;4274;52.012;8.448;2023-02-26T14:34:58;7.60;77.10
8475;DHT22;4274;52.012;8.448;2023-02-26T14:37:25;7.00;78.20
8475;DHT22;4274;52.012;8.448;2023-02-26T14:47:59;5.20;80.40
8475;DHT22;4274;52.012;8.448;2023-02-26T14:50:31;4.90;81.60
8475;DHT22;4274;52.012;8.448;2023-02-26T14:56:05;4.60;83.70
8475;DHT22;4274;52.012;8.448;2023-02-26T15:04:39;4.30;82.00
8475;DHT22;4274;52.012;8.448;2023-02-26T15:07:33;4.10;82.60
8475;DHT22;4274;52.012;8.448;2023-02-26T15:10:11;4.10;83.90
8475;DHT22;4274;52.012;8.448;2023-02-26T15:20:47;4.00;84.60
8475;DHT22;4274;52.012;8.448;2023-02-26T15:23:39;4.00;85.90
8475;DHT22;4274;52.012;8.448;2023-02-26T15:26:06;4.00;86.50
8475;DHT22;4274;52.012;8.448;2023-02-26T15:28:39;3.90;84.30
8475;DHT22;4274;52.012;8.448;2023-02-26T15:31:08;3.90;85.60
8475;DHT22;4274;52.012;8.448;2023-02-26T15:33:34;3.70;86.20
8475;DHT22;4274;52.012;8.448;2023-02-26T15:36:05;3.70;85.90
8475;DHT22;4274;52.012;8.448;2023-02-26T15:38:40;3.60;86.90
8475;DHT22;4274;52.012;8.448;2023-02-26T15:41:06;3.50;88.10
8475;DHT22;4274;52.012;8.448;2023-02-26T15:43:32;3.40;87.60
8475;DHT22;4274;52.012;8.448;2023-02-26T15:45:58;3.30;88.50
8475;DHT22;4274;52.012;8.448;2023-02-26T15:48:40;3.20;89.30
8475;DHT22;4274;52.012;8.448;2023-02-26T15:51:11;3.20;89.30
8475;DHT22;4274;52.012;8.448;2023-02-26T15:53:45;3.20;90.20
8475;DHT22;4274;52.012;8.448;2023-02-26T15:56:20;3.20;90.80
8475;DHT22;4274;52.012;8.448;2023-02-26T15:58:57;3.20;90.50
8475;DHT22;4274;52.012;8.448;2023-02-26T16:01:26;3.20;90.80
8475;DHT22;4274;52.012;8.448;2023-02-26T16:03:55;3.30;91.60
8475;DHT22;4274;52.012;8.448;2023-02-26T16:06:29;3.30;92.20
8475;DHT22;4274;52.012;8.448;2023-02-26T16:08:54;3.30;93.10
8475;DHT22;4274;52.012;8.448;2023-02-26T16:11:21;3.40;93.80
8475;DHT22;4274;52.012;8.448;2023-02-26T16:13:50;3.40;93.90
8475;DHT22;4274;52.012;8.448;2023-02-26T16:16:23;3.40;94.20
8475;DHT22;4274;52.012;8.448;2023-02-26T16:18:51;3.30;94.70
8475;DHT22;4274;52.012;8.448;2023-02-26T16:21:33;3.30;94.60
8475;DHT22;4274;52.012;8.448;2023-02-26T16:24:02;3.20;94.90
8475;DHT22;4274;52.012;8.448;2023-02-26T16:26:33;3.10;95.70
8475;DHT22;4274;52.012;8.448;2023-02-26T16:29:21;3.00;95.70
8475;DHT22;4274;52.012;8.448;2023-02-26T16:31:51;2.90;95.40
8475;DHT22;4274;52.012;8.448;2023-02-26T16:34:39;2.90;95.90
8475;DHT22;4274;52.012;8.448;2023-02-26T16:39:55;2.70;96.10
8475;DHT22;4274;52.012;8.448;2023-02-26T16:42:32;2.70;95.90
8475;DHT22;4274;52.012;8.448;2023-02-26T16:45:24;2.70;97.00
8475;DHT22;4274;52.012;8.448;2023-02-26T16:47:54;2.70;97.20
8475;DHT22;4274;52.012;8.448;2023-02-26T16:50:25;2.60;97.10
8475;DHT22;4274;52.012;8.448;2023-02-26T16:53:11;2.60;97.70
8475;DHT22;4274;52.012;8.448;2023-02-26T16:55:38;2.60;98.20
8475;DHT22;4274;52.012;8.448;2023-02-26T16:58:06;2.60;98.10
8475;DHT22;4274;52.012;8.448;2023-02-26T17:00:34;2.60;98.50
8475;DHT22;4274;52.012;8.448;2023-02-26T17:03:09;2.60;98.40
8475;DHT22;4274;52.012;8.448;2023-02-26T17:05:38;2.60;98.50
8475;DHT22;4274;52.012;8.448;2023-02-26T17:08:17;2.60;99.00
8475;DHT22;4274;52.012;8.448;2023-02-26T17:13:18;2.60;99.70
8475;DHT22;4274;52.012;8.448;2023-02-26T17:15:48;2.60;99.90
8475;DHT22;4274;52.012;8.448;2023-02-26T17:18:15;2.60;99.90
8475;DHT22;4274;52.012;8.448;2023-02-26T17:20:42;2.50;99.90
8475;DHT22;4274;52.012;8.448;2023-02-26T17:23:09;2.50;99.90
8475;DHT22;4274;52.012;8.448;2023-02-26T17:25:40;2.50;99.90
8475;DHT22;4274;52.012;8.448;2023-02-26T17:28:06;2.40;99.90
8475;DHT22;4274;52.012;8.448;2023-02-26T17:30:32;2.50;99.90
8475;DHT22;4274;52.012;8.448;2023-02-26T17:33:00;2.50;99.90
8475;DHT22;4274;52.012;8.448;2023-02-26T17:35:28;2.50;99.90
8475;DHT22;4274;52.012;8.448;2023-02-26T17:37:54;2.50;99.90
8475;DHT22;4274;52.012;8.448;2023-02-26T17:40:27;2.50;99.90
8475;DHT22;4274;52.012;8.448;2023-02-26T17:42:53;2.50;99.90
8475;DHT22;4274;52.012;8.448;2023-02-26T17:45:19;2.50;99.90
8475;DHT22;4274;52.012;8.448;2023-02-26T17:47:45;2.40;99.90
8475;DHT22;4274;52.012;8.448;2023-02-26T17:52:55;2.40;99.90
8475;DHT22;4274;52.012;8.448;2023-02-26T17:55:20;2.40;99.90
8475;DHT22;4274;52.012;8.448;2023-02-26T17:57:46;2.30;99.90
8475;DHT22;4274;52.012;8.448;2023-02-26T18:00:14;2.30;99.90
8475;DHT22;4274;52.012;8.448;2023-02-26T18:02:40;2.20;99.90
8475;DHT22;4274;52.012;8.448;2023-02-26T18:05:06;2.20;99.90
8475;DHT22;4274;52.012;8.448;2023-02-26T18:07:32;2.10;99.90
8475;DHT22;4274;52.012;8.448;2023-02-26T18:09:57;2.10;99.90
8475;DHT22;4274;52.012;8.448;2023-02-26T18:12:23;2.00;99.90
8475;DHT22;4274;52.012;8.448;2023-02-26T18:14:49;1.90;99.90
8475;DHT22;4274;52.012;8.448;2023-02-26T18:17:18;1.90;99.90
8475;DHT22;4274;52.012;8.448;2023-02-26T18:19:45;1.90;99.90
8475;DHT22;4274;52.012;8.448;2023-02-26T18:22:14;1.90;99.90
8475;DHT22;4274;52.012;8.448;2023-02-26T18:24:40;1.80;99.90
8475;DHT22;4274;52.012;8.448;2023-02-26T18:27:10;1.80;99.90
8475;DHT22;4274;52.012;8.448;2023-02-26T18:29:37;1.70;99.90
8475;DHT22;4274;52.012;8.448;2023-02-26T18:32:02;1.70;99.90
8475;DHT22;4274;52.012;8.448;2023-02-26T18:34:28;1.60;99.90
8475;DHT22;4274;52.012;8.448;2023-02-26T18:36:53;1.50;99.90
8475;DHT22;4274;52.012;8.448;2023-02-26T18:39:19;1.50;99.90
8475;DHT22;4274;52.012;8.448;2023-02-26T18:41:45;1.50;99.90
8475;DHT22;4274;52.012;8.448;2023-02-26T18:44:11;1.40;99.90
8475;DHT22;4274;52.012;8.448;2023-02-26T18:46:37;1.40;99.90
8475;DHT22;4274;52.012;8.448;2023-02-26T18:49:05;1.30;99.90
8475;DHT22;4274;52.012;8.448;2023-02-26T18:51:31;1.30;99.90
8475;DHT22;4274;52.012;8.448;2023-02-26T18:53:57;1.40;99.90
8475;DHT22;4274;52.012;8.448;2023-02-26T18:56:23;1.30;99.90
8475;DHT22;4274;52.012;8.448;2023-02-26T18:58:48;1.30;99.90
8475;DHT22;4274;52.012;8.448;2023-02-26T19:01:14;1.20;99.90
8475;DHT22;4274;52.012;8.448;2023-02-26T19:03:39;1.20;99.90
8475;DHT22;4274;52.012;8.448;2023-02-26T19:06:05;1.30;99.90
8475;DHT22;4274;52.012;8.448;2023-02-26T19:08:34;1.20;99.90
8475;DHT22;4274;52.012;8.448;2023-02-26T19:10:59;1.20;99.90
8475;DHT22;4274;52.012;8.448;2023-02-26T19:13:25;1.30;99.90
8475;DHT22;4274;52.012;8.448;2023-02-26T19:15:51;1.30;99.90
8475;DHT22;4274;52.012;8.448;2023-02-26T19:18:17;1.30;99.90
8475;DHT22;4274;52.012;8.448;2023-02-26T19:20:43;1.20;99.90
8475;DHT22;4274;52.012;8.448;2023-02-26T19:23:09;1.20;99.90
8475;DHT22;4274;52.012;8.448;2023-02-26T19:25:35;1.10;99.90